Mountain Lake, Minnesota
Current Conditions -  °F | °C
As of 8:34 PM on Thursday 20 Nov 2014 (Local Time) from KMWM Reporting Station
NA  
Wind Chill:   Ceiling: NA
Heat Index:   Visibility: 10mi
Dew Point: -2°   Wind: 0mph
Humidity: 85%   Direction: NA
Pressure: 30.19"   Gusts: NA
Location:  43.94°N, 94.93°W
Report Text: KMWM 210234Z AUTO 00000KT 10SM M17/M19 A3019 RMK AO2
Loading
Personal Weather Stations






























Interactive Weather Map New forecast layout! Learn more

10-Day Weather Forecast

Advertisements
Track Severe Weather on mobile